createdAt,value
2018-08-20T00:02:09.243Z,94.50
2018-08-20T00:07:07.082Z,94.50
2018-08-20T00:12:04.203Z,94.60
2018-08-20T00:16:58.368Z,94.30
2018-08-20T00:21:53.276Z,94.90
2018-08-20T00:26:47.737Z,95.00
2018-08-20T00:31:42.862Z,95.10
2018-08-20T00:36:37.063Z,95.30
2018-08-20T00:41:31.767Z,95.30
2018-08-20T00:46:27.280Z,95.50
2018-08-20T00:51:21.471Z,95.90
2018-08-20T00:56:15.158Z,95.90
2018-08-20T01:01:09.577Z,95.80
2018-08-20T01:06:04.651Z,96.10
2018-08-20T01:10:59.262Z,95.80
2018-08-20T01:15:52.999Z,96.10
2018-08-20T01:20:47.668Z,96.50
2018-08-20T01:25:41.628Z,96.70
2018-08-20T01:30:35.793Z,97.00
2018-08-20T01:35:30.731Z,97.00
2018-08-20T01:40:25.396Z,97.20
2018-08-20T01:45:19.600Z,97.10
2018-08-20T01:50:13.444Z,97.40
2018-08-20T01:55:08.062Z,97.30
2018-08-20T02:00:09.616Z,97.60
2018-08-20T02:05:07.835Z,97.60
2018-08-20T02:10:03.957Z,97.80
2018-08-20T02:15:00.164Z,97.90
2018-08-20T02:19:54.504Z,98.00
2018-08-20T02:24:48.423Z,98.20
2018-08-20T02:29:42.457Z,98.30
2018-08-20T02:34:37.472Z,98.30
2018-08-20T02:39:31.688Z,98.30
2018-08-20T02:44:26.137Z,98.40
2018-08-20T02:49:27.378Z,98.70
2018-08-20T02:54:22.435Z,98.90
2018-08-20T02:59:16.281Z,98.80
2018-08-20T03:04:10.483Z,98.90
2018-08-20T03:09:10.594Z,99.10
2018-08-20T03:14:05.871Z,99.10
2018-08-20T03:19:07.343Z,99.10
2018-08-20T03:24:01.607Z,99.30
2018-08-20T03:28:55.814Z,99.30
2018-08-20T03:33:50.771Z,99.40
2018-08-20T03:38:45.862Z,99.20
2018-08-20T03:43:40.364Z,99.20
2018-08-20T03:48:34.660Z,99.30
2018-08-20T03:53:29.932Z,99.30
2018-08-20T03:58:24.049Z,99.60
2018-08-20T04:03:18.862Z,99.80
2018-08-20T04:08:13.504Z,99.80
2018-08-20T04:13:09.570Z,99.90
2018-08-20T04:18:04.677Z,99.90
2018-08-20T04:22:59.635Z,99.90
2018-08-20T04:27:54.726Z,99.80
2018-08-20T04:32:49.631Z,99.60
2018-08-20T04:37:43.784Z,99.40
2018-08-20T04:42:39.804Z,99.00
2018-08-20T04:47:35.307Z,98.80
2018-08-20T04:52:30.431Z,98.30
2018-08-20T04:57:25.767Z,95.30
2018-08-20T05:02:20.459Z,91.40
2018-08-20T05:07:18.747Z,90.10
2018-08-20T05:12:13.291Z,90.60
2018-08-20T05:17:08.076Z,90.30
2018-08-20T05:22:03.287Z,87.40
2018-08-20T05:26:58.859Z,84.70
2018-08-20T05:31:54.329Z,78.30
2018-08-20T05:36:48.104Z,75.10
2018-08-20T05:41:43.706Z,76.10
2018-08-20T05:46:37.763Z,77.90
2018-08-20T05:51:47.401Z,72.50
2018-08-20T05:56:41.695Z,62.80
2018-08-20T06:01:44.516Z,58.90
2018-08-20T06:06:41.369Z,57.60
2018-08-20T06:11:36.301Z,55.20
2018-08-20T06:16:30.359Z,55.20
2018-08-20T06:21:25.041Z,50.70
2018-08-20T06:26:19.847Z,43.80
2018-08-20T06:31:13.719Z,42.30
2018-08-20T06:36:08.107Z,37.50
2018-08-20T06:41:03.348Z,38.10
2018-08-20T06:45:57.758Z,36.60
2018-08-20T06:50:53.097Z,34.70
2018-08-20T06:55:49.796Z,34.90
2018-08-20T07:00:44.844Z,36.10
2018-08-20T07:05:39.891Z,38.80
2018-08-20T07:10:41.117Z,39.10
2018-08-20T07:15:35.136Z,39.60
2018-08-20T07:20:31.339Z,40.80
2018-08-20T07:25:25.761Z,42.10
2018-08-20T07:30:21.021Z,42.80
2018-08-20T07:35:17.082Z,40.00
2018-08-20T07:40:12.393Z,36.30
2018-08-20T07:45:07.235Z,32.60
2018-08-20T07:50:07.107Z,30.70
2018-08-20T07:55:03.053Z,31.70
2018-08-20T07:59:59.564Z,33.20
2018-08-20T08:04:54.643Z,35.90
2018-08-20T08:09:49.283Z,37.50
2018-08-20T08:14:44.540Z,38.80
2018-08-20T08:19:39.182Z,37.90
2018-08-20T08:24:34.064Z,35.90
2018-08-20T08:29:31.347Z,33.10
2018-08-20T08:34:27.422Z,32.50
2018-08-20T08:39:21.864Z,29.50
2018-08-20T08:44:17.666Z,28.10
2018-08-20T08:49:15.372Z,27.50
2018-08-20T08:54:10.015Z,26.10
2018-08-20T08:59:08.575Z,25.50
2018-08-20T09:04:02.845Z,24.00
2018-08-20T09:08:57.612Z,23.10
2018-08-20T09:13:52.356Z,23.60
2018-08-20T09:18:54.110Z,23.80
2018-08-20T09:23:56.605Z,23.40
2018-08-20T09:28:58.929Z,24.30
2018-08-20T09:33:55.717Z,23.70
2018-08-20T09:38:50.398Z,23.00
2018-08-20T09:43:45.311Z,22.60
2018-08-20T09:48:40.309Z,22.30
2018-08-20T09:53:43.960Z,23.10
2018-08-20T09:58:48.924Z,22.10
2018-08-20T10:03:46.742Z,22.40
2018-08-20T10:08:44.294Z,21.40
2018-08-20T10:13:39.608Z,21.90
2018-08-20T10:18:34.348Z,22.30
2018-08-20T10:23:29.036Z,22.70
2018-08-20T10:28:24.644Z,22.80
2018-08-20T10:33:19.356Z,22.30
2018-08-20T10:38:13.653Z,23.60
2018-08-20T10:43:07.712Z,22.10
2018-08-20T10:48:03.784Z,22.70
2018-08-20T10:52:58.547Z,23.80
2018-08-20T10:57:53.934Z,24.80
2018-08-20T11:02:49.184Z,25.90
2018-08-20T11:07:42.921Z,25.30
2018-08-20T11:12:37.169Z,24.50
2018-08-20T11:17:46.313Z,26.10
2018-08-20T11:22:42.457Z,25.80
2018-08-20T11:27:44.502Z,27.80
2018-08-20T11:32:38.821Z,29.30
2018-08-20T11:37:34.982Z,30.70
2018-08-20T11:42:29.505Z,32.90
2018-08-20T11:47:23.766Z,35.50
2018-08-20T11:52:17.554Z,35.50
2018-08-20T11:57:13.223Z,34.70
2018-08-20T12:02:09.273Z,36.50
2018-08-20T12:07:06.013Z,37.30
2018-08-20T12:12:04.666Z,37.60
2018-08-20T12:16:58.871Z,37.40
2018-08-20T12:21:54.029Z,39.00
2018-08-20T12:26:48.592Z,38.40
2018-08-20T12:31:50.370Z,38.20
2018-08-20T12:36:46.156Z,38.30
2018-08-20T12:41:40.694Z,38.10
2018-08-20T12:46:35.469Z,38.90
2018-08-20T12:51:30.129Z,39.90
2018-08-20T12:56:24.509Z,39.70
2018-08-20T13:01:19.128Z,39.80
2018-08-20T13:06:13.416Z,39.60
2018-08-20T13:11:07.784Z,40.70
2018-08-20T13:16:02.334Z,40.30
2018-08-20T13:20:56.275Z,40.70
2018-08-20T13:25:50.446Z,41.40
2018-08-20T13:31:00.016Z,41.40
2018-08-20T13:35:54.783Z,41.40
2018-08-20T13:40:49.582Z,41.20
2018-08-20T13:45:46.406Z,41.80
2018-08-20T13:50:40.462Z,42.20
2018-08-20T13:55:34.772Z,42.60
2018-08-20T14:00:28.977Z,42.80
2018-08-20T14:05:23.204Z,41.80
2018-08-20T14:10:17.257Z,42.90
2018-08-20T14:15:13.211Z,43.00
2018-08-20T14:20:11.301Z,42.40
2018-08-20T14:25:05.210Z,42.80
2018-08-20T14:30:01.583Z,43.60
2018-08-20T14:34:55.844Z,43.30
2018-08-20T14:39:50.175Z,43.50
2018-08-20T14:44:45.425Z,43.20
2018-08-20T14:49:40.070Z,44.30
2018-08-20T14:54:34.113Z,43.50
2018-08-20T14:59:29.289Z,44.90
2018-08-20T15:04:23.448Z,45.30
2018-08-20T15:09:18.346Z,45.40
2018-08-20T15:14:12.405Z,45.80
2018-08-20T15:19:06.729Z,46.10
2018-08-20T15:24:01.029Z,46.00
2018-08-20T15:28:56.532Z,46.30
2018-08-20T15:33:50.474Z,46.50
2018-08-20T15:38:45.061Z,46.60
2018-08-20T15:43:40.461Z,47.00
2018-08-20T15:48:34.712Z,47.00
2018-08-20T15:53:29.209Z,47.90
2018-08-20T15:58:23.917Z,48.00
2018-08-20T16:03:18.654Z,48.40
2018-08-20T16:08:13.427Z,48.40
2018-08-20T16:13:07.900Z,49.50
2018-08-20T16:18:03.002Z,49.60
2018-08-20T16:22:57.908Z,49.70
2018-08-20T16:27:52.600Z,49.90
2018-08-20T16:32:48.102Z,50.40
2018-08-20T16:37:43.381Z,51.30
2018-08-20T16:42:37.856Z,51.30
2018-08-20T16:47:35.435Z,51.20
2018-08-20T16:52:30.988Z,51.60
2018-08-20T16:57:27.619Z,51.10
2018-08-20T17:02:27.022Z,51.80
2018-08-20T17:07:21.960Z,51.50
2018-08-20T17:12:16.776Z,51.90
2018-08-20T17:17:11.226Z,52.90
2018-08-20T17:22:09.772Z,52.30
2018-08-20T17:27:08.468Z,52.70
2018-08-20T17:32:06.407Z,53.00
2018-08-20T17:37:01.226Z,53.20
2018-08-20T17:41:56.018Z,53.50
2018-08-20T17:46:58.663Z,54.50
2018-08-20T17:51:52.953Z,54.50
2018-08-20T17:56:47.357Z,55.90
2018-08-20T18:01:41.891Z,56.10
2018-08-20T18:06:52.356Z,56.10
2018-08-20T18:11:50.540Z,56.30
2018-08-20T18:16:46.423Z,57.40
2018-08-20T18:21:41.392Z,57.80
2018-08-20T18:26:42.796Z,57.80
2018-08-20T18:31:37.247Z,58.00
2018-08-20T18:36:40.804Z,58.30
2018-08-20T18:42:18.056Z,57.90
2018-08-20T18:47:15.131Z,59.20
2018-08-20T18:52:11.394Z,59.50
2018-08-20T18:57:08.236Z,59.40
2018-08-20T19:02:04.348Z,60.10
2018-08-20T19:07:04.236Z,60.60
2018-08-20T19:11:59.972Z,61.50
2018-08-20T19:16:54.396Z,62.50
2018-08-20T19:21:49.871Z,63.40
2018-08-20T19:26:51.377Z,64.50
2018-08-20T19:31:45.756Z,65.00
2018-08-20T19:36:40.367Z,65.90
2018-08-20T19:41:34.837Z,66.70
2018-08-20T19:46:34.016Z,67.60
2018-08-20T19:51:29.084Z,68.10
2018-08-20T19:56:24.650Z,69.00
2018-08-20T20:01:19.234Z,69.70
2018-08-20T20:06:14.310Z,69.40
2018-08-20T20:11:17.472Z,69.80
2018-08-20T20:16:12.402Z,70.90
2018-08-20T20:21:14.257Z,69.20
2018-08-20T20:26:08.991Z,68.80
2018-08-20T20:31:07.195Z,68.40
2018-08-20T20:36:03.297Z,68.80
2018-08-20T20:40:57.507Z,67.50
2018-08-20T20:45:59.807Z,68.50
2018-08-20T20:50:55.734Z,66.80
2018-08-20T20:55:49.942Z,67.10
2018-08-20T21:00:46.849Z,66.90
2018-08-20T21:05:40.831Z,67.60
2018-08-20T21:10:41.338Z,67.40
2018-08-20T21:15:35.541Z,67.90
2018-08-20T21:20:31.596Z,67.80
2018-08-20T21:25:25.696Z,68.80
2018-08-20T21:30:22.459Z,68.50
2018-08-20T21:35:16.645Z,69.00
2018-08-20T21:40:16.079Z,68.80
2018-08-20T21:45:10.093Z,69.30
2018-08-20T21:50:04.826Z,69.20
2018-08-20T21:54:59.345Z,69.90
2018-08-20T22:00:04.506Z,69.80
2018-08-20T22:05:03.365Z,70.30
2018-08-20T22:10:06.343Z,70.80
2018-08-20T22:15:01.111Z,70.30
2018-08-20T22:19:55.663Z,70.40
2018-08-20T22:24:54.978Z,70.60
2018-08-20T22:29:50.228Z,72.10
2018-08-20T22:34:53.378Z,71.50
2018-08-20T22:39:59.466Z,71.50
2018-08-20T22:45:00.766Z,71.70
2018-08-20T22:49:55.256Z,72.10
2018-08-20T22:54:49.236Z,71.90
2018-08-20T22:59:43.635Z,72.00
2018-08-20T23:04:38.232Z,72.50
2018-08-20T23:09:33.143Z,72.00
2018-08-20T23:14:27.034Z,72.40
2018-08-20T23:19:21.045Z,73.40
2018-08-20T23:24:16.059Z,73.30
2018-08-20T23:29:10.360Z,73.40
2018-08-20T23:34:11.997Z,73.60
2018-08-20T23:39:09.624Z,74.00
2018-08-20T23:44:05.351Z,74.30
2018-08-20T23:48:59.431Z,74.70
2018-08-20T23:54:02.888Z,74.30
2018-08-20T23:58:56.960Z,74.90
